< < Back
Terminal Aerodrome Forecast


Current Version              Previous Versions:   1  2  3  4  5  6  7  8  9  

Terminal Aerodrome Forecast

899
FTUS44 KBMX 042300
TAFBHM
TAF
KBHM 042323Z 0500/0524 22009KT P6SM VCSH SCT020 BKN040
     FM050400 34009KT 4SM RA BR OVC015
     FM051800 34010KT 4SM -RA OVC007 PROB30 0518/0520 4SM -FZRA
      OVC007
     FM052000 35012KT P6SM OVC015=

Latest METAR

624
SAUS70 KWBC 051200
MTRBHM
METAR KBHM 051153Z 32014KT 5SM -RA BR BKN008 OVC015 03/02 A3005 RMK AO2
PRESRR SLP175 P0012 60014 70047 T00280017 10078 20028
53024


USA.gov is the U.S. government's official web portal to all federal, state and local government web resources and services.